CheckWX is a tool to help pilots better visualize weather data.  It is not intended as a substitute for an official pre-flight weather briefing.

07:20:09 UTC

KONT TAF
Ontario International Airport
Ontario, California, USA
KONT 150529Z 1506/1612 VRB04KT P6SM BKN200 FM151100 VRB04KT 3SM BR OVC008 FM151600 VRB04KT 5SM HZ FEW010 SCT200 FM152100 26008KT P6SM SCT200 FM160400 VRB04KT P6SM SCT200

Nov-15@
06:00 UTC

Nov-15 @ 06:00 UTC

Nov-15@
11:00 UTC

Nov-15 @ 11:00 UTC

KONT 150529Z 1506/1612 VRB04KT P6SM BKN200
Wind
  • Variable at 4 KTS
Cloud Levels
  • Broken at 20,000' AGL

Nov-15@
11:00 UTC

Nov-15 @ 11:00 UTC

Nov-15@
16:00 UTC

Nov-15 @ 16:00 UTC

FM151100 VRB04KT 3SM BR OVC008

From

From Standard forecast or significant change

Wind
  • Variable at 4 KTS
Conditions
Mist
Cloud Levels
  • Overcast at 800' AGL

Nov-15@
16:00 UTC

Nov-15 @ 16:00 UTC

Nov-15@
21:00 UTC

Nov-15 @ 21:00 UTC

FM151600 VRB04KT 5SM HZ FEW010 SCT200

From

From Standard forecast or significant change

Wind
  • Variable at 4 KTS
Conditions
Haze
Cloud Levels
  • Few at 1,000' AGL
  • Scattered at 20,000' AGL

Nov-15@
21:00 UTC

Nov-15 @ 21:00 UTC

Nov-16@
04:00 UTC

Nov-16 @ 04:00 UTC

FM152100 26008KT P6SM SCT200

From

From Standard forecast or significant change

Wind
  • 260° at 8 KTS
Cloud Levels
  • Scattered at 20,000' AGL

Nov-16@
04:00 UTC

Nov-16 @ 04:00 UTC

Nov-16@
12:00 UTC

Nov-16 @ 12:00 UTC

FM160400 VRB04KT P6SM SCT200

From

From Standard forecast or significant change

Wind
  • Variable at 4 KTS
Cloud Levels
  • Scattered at 20,000' AGL